»·PEaware :: EAW145 KLAS-KSAN

EAW145 :: KLAS-KSAN

FLIGHT INFORMATION

Flight Status: Arrived
Operator: Unknown
More flights by this operator :: More flights under this callsign
Pilot: Dave P. (45)
Aircraft: BOEING 737-800
(B738)
More flights by this aircraft type
Origin: KLAS McCarran Intl
United States
Destination: KSAN San Diego Intl-Lindbergh
United States
More flights between these airports :: More routes between these airports
Route: +BOACH8 LVELL LUCKI1
File this flight plan on PilotEdge
Remarks: PBN / A1B1C1D1S1S2 DOF / 171231 REG / N738PM OPR / EAW PER / C RMK / TCAS SIMBRIEF
Altitude:
(Current/Filed)
28,000ft
Speed:
(Current/Filed)
470kts
Departed: 30-Dec-17 06:53 PM
Arrived: 30-Dec-17 07:38 PM
Distance/Time
Traveled:
225nm/0:45
Distance/Time
To Go:
Arrived

Flight Plot

Page will automatically refresh every two minutes.

Flight plan parsing failed; only flown route is shown


Map Options




Map Legend


Flown Route
Filed Route
Departure Airport
Arrival Airport
Navaid (VOR, NDB)
Fix

Horizontal Profiles

Position Reports

Time Latitude Longitude Heading Altitude Ground
Speed
30-Dec-17 18:41 36.084838 -115.153881 333 2189ft 0kts
30-Dec-17 18:42 36.084838 -115.153881 333 2189ft 0kts
30-Dec-17 18:43 36.084838 -115.153881 333 2189ft 0kts
30-Dec-17 18:44 36.084838 -115.153881 333 2189ft 0kts
30-Dec-17 18:45 36.084838 -115.153881 333 2189ft 0kts
30-Dec-17 18:46 36.084838 -115.153881 333 2189ft 0kts
30-Dec-17 18:47 36.084838 -115.153881 333 2189ft 0kts
30-Dec-17 18:48 36.084838 -115.153881 333 2189ft 0kts
30-Dec-17 18:49 36.084826 -115.153875 333 2189ft 1kts
30-Dec-17 18:50 36.084204 -115.153499 333 2189ft 0kts
30-Dec-17 18:51 36.084204 -115.153499 333 2189ft 0kts
30-Dec-17 18:52 36.084205 -115.153500 333 2189ft 0kts
30-Dec-17 18:53 36.084180 -115.154213 243 2189ft 7kts
30-Dec-17 18:54 36.084942 -115.156109 268 2189ft 8kts
30-Dec-17 18:55 36.087698 -115.157589 24 2189ft 15kts
30-Dec-17 18:56 36.092216 -115.155004 24 2189ft 16kts
30-Dec-17 18:57 36.096328 -115.152654 24 2189ft 15kts
30-Dec-17 18:58 36.098140 -115.153792 217 2189ft 4kts
30-Dec-17 18:59 36.087684 -115.159794 204 2189ft 138kts
30-Dec-17 19:00 36.045025 -115.184470 204 4359ft 191kts
30-Dec-17 19:01 35.997741 -115.237292 242 5981ft 270kts
30-Dec-17 19:02 35.945230 -115.300894 192 7371ft 286kts
30-Dec-17 19:03 35.866216 -115.314066 185 10667ft 294kts
30-Dec-17 19:04 35.775401 -115.305829 177 12166ft 361kts
30-Dec-17 19:05 35.672591 -115.294734 181 14838ft 376kts
30-Dec-17 19:06 35.566658 -115.298993 184 17553ft 388kts
30-Dec-17 19:07 35.456657 -115.303445 184 19013ft 400kts
30-Dec-17 19:08 35.344347 -115.307873 184 21416ft 408kts
30-Dec-17 19:09 35.229251 -115.312399 184 23450ft 420kts
30-Dec-17 19:10 35.110671 -115.317064 185 25256ft 431kts
30-Dec-17 19:11 34.989400 -115.321830 184 26836ft 442kts
30-Dec-17 19:12 34.866281 -115.326634 185 28108ft 445kts
30-Dec-17 19:13 34.745359 -115.347213 200 28119ft 434kts
30-Dec-17 19:14 34.631752 -115.396140 202 28122ft 433kts
30-Dec-17 19:15 34.517984 -115.446002 202 28129ft 434kts
30-Dec-17 19:16 34.404440 -115.495404 201 28135ft 434kts
30-Dec-17 19:17 34.294148 -115.552556 212 28139ft 431kts
30-Dec-17 19:18 34.189799 -115.624543 204 28129ft 433kts
30-Dec-17 19:19 34.077710 -115.677623 203 28125ft 433kts
30-Dec-17 19:20 33.965035 -115.730574 202 28117ft 433kts
30-Dec-17 19:21 33.853252 -115.784519 203 28115ft 433kts
30-Dec-17 19:22 33.742069 -115.838513 202 28096ft 426kts
30-Dec-17 19:23 33.632564 -115.889670 202 27318ft 411kts
30-Dec-17 19:24 33.529390 -115.942791 216 25241ft 397kts
30-Dec-17 19:25 33.458970 -116.042045 233 23106ft 387kts
30-Dec-17 19:26 33.397832 -116.146606 234 21084ft 378kts
30-Dec-17 19:27 33.334583 -116.244331 218 19181ft 366kts
30-Dec-17 19:28 33.245028 -116.304253 206 17063ft 368kts
30-Dec-17 19:29 33.153819 -116.357693 206 15123ft 362kts
30-Dec-17 19:30 33.064711 -116.409686 206 13248ft 350kts
30-Dec-17 19:31 32.984887 -116.464194 219 11676ft 311kts
30-Dec-17 19:32 32.922918 -116.527456 221 10612ft 283kts
30-Dec-17 19:33 32.863882 -116.587050 221 9596ft 275kts
30-Dec-17 19:34 32.805723 -116.645635 221 8549ft 270kts
30-Dec-17 19:35 32.757527 -116.711245 240 7870ft 255kts
30-Dec-17 19:36 32.724393 -116.782273 241 6988ft 231kts
30-Dec-17 19:37 32.697142 -116.849752 249 5867ft 226kts
30-Dec-17 19:38 32.676394 -116.913908 249 5058ft 197kts
30-Dec-17 19:39 32.681391 -116.975336 285 4406ft 181kts
30-Dec-17 19:40 32.695381 -117.032287 285 3031ft 174kts
30-Dec-17 19:41 32.708590 -117.086707 285 1938ft 164kts
30-Dec-17 19:42 32.720320 -117.135069 286 983ft 145kts
30-Dec-17 19:43 32.731432 -117.180884 286 81ft 143kts
30-Dec-17 19:44 32.734995 -117.198359 194 23ft 0kts
30-Dec-17 19:45 32.734746 -117.198625 264 23ft 7kts
30-Dec-17 19:46 32.734367 -117.200702 226 23ft 0kts
30-Dec-17 19:47 32.734367 -117.200702 226 23ft 0kts
30-Dec-17 19:48 32.734367 -117.200702 226 23ft 0kts

Navigation Log

Ident Type
Flight plan parsing failed, navigation log unavailable